sensor_id;sensor_type;location;lat;lon;timestamp;P1;durP1;ratioP1;P2;durP2;ratioP2
1775;SDS011;885;42.626;23.200;2022-12-18T00:01:19;3.23;;;2.93;;
1775;SDS011;885;42.626;23.200;2022-12-18T00:03:47;3.27;;;2.90;;
1775;SDS011;885;42.626;23.200;2022-12-18T00:06:16;5.37;;;3.50;;
1775;SDS011;885;42.626;23.200;2022-12-18T00:08:46;5.17;;;3.83;;
1775;SDS011;885;42.626;23.200;2022-12-18T00:11:16;3.57;;;2.93;;
1775;SDS011;885;42.626;23.200;2022-12-18T00:13:46;8.43;;;3.47;;
1775;SDS011;885;42.626;23.200;2022-12-18T00:16:14;3.97;;;3.67;;
1775;SDS011;885;42.626;23.200;2022-12-18T00:18:46;3.80;;;3.40;;
1775;SDS011;885;42.626;23.200;2022-12-18T00:21:13;3.70;;;3.20;;
1775;SDS011;885;42.626;23.200;2022-12-18T00:23:43;3.07;;;2.80;;
1775;SDS011;885;42.626;23.200;2022-12-18T00:26:11;5.53;;;3.87;;
1775;SDS011;885;42.626;23.200;2022-12-18T00:28:45;4.50;;;4.10;;
1775;SDS011;885;42.626;23.200;2022-12-18T00:31:14;7.67;;;4.77;;
1775;SDS011;885;42.626;23.200;2022-12-18T00:33:44;5.03;;;4.60;;
1775;SDS011;885;42.626;23.200;2022-12-18T00:36:12;5.53;;;5.13;;
1775;SDS011;885;42.626;23.200;2022-12-18T00:38:44;5.37;;;4.87;;
1775;SDS011;885;42.626;23.200;2022-12-18T00:41:12;4.50;;;4.10;;
1775;SDS011;885;42.626;23.200;2022-12-18T00:44:05;4.80;;;4.30;;
1775;SDS011;885;42.626;23.200;2022-12-18T00:46:32;4.73;;;4.23;;
1775;SDS011;885;42.626;23.200;2022-12-18T00:48:59;5.30;;;4.50;;
1775;SDS011;885;42.626;23.200;2022-12-18T00:51:26;5.40;;;4.50;;
1775;SDS011;885;42.626;23.200;2022-12-18T00:53:52;4.43;;;4.00;;
1775;SDS011;885;42.626;23.200;2022-12-18T00:56:19;5.13;;;4.03;;
1775;SDS011;885;42.626;23.200;2022-12-18T00:58:46;4.40;;;4.00;;
1775;SDS011;885;42.626;23.200;2022-12-18T01:01:15;6.27;;;4.20;;
1775;SDS011;885;42.626;23.200;2022-12-18T01:03:44;5.37;;;4.70;;
1775;SDS011;885;42.626;23.200;2022-12-18T01:06:12;4.97;;;4.57;;
1775;SDS011;885;42.626;23.200;2022-12-18T01:08:43;6.53;;;4.80;;
1775;SDS011;885;42.626;23.200;2022-12-18T01:11:11;5.60;;;5.00;;
1775;SDS011;885;42.626;23.200;2022-12-18T01:13:39;7.40;;;5.03;;
1775;SDS011;885;42.626;23.200;2022-12-18T01:16:06;5.63;;;5.07;;
1775;SDS011;885;42.626;23.200;2022-12-18T01:18:35;5.60;;;5.10;;
1775;SDS011;885;42.626;23.200;2022-12-18T01:21:05;6.27;;;5.27;;
1775;SDS011;885;42.626;23.200;2022-12-18T01:23:33;5.53;;;5.03;;
1775;SDS011;885;42.626;23.200;2022-12-18T01:26:03;5.13;;;4.70;;
1775;SDS011;885;42.626;23.200;2022-12-18T01:28:31;5.83;;;5.30;;
1775;SDS011;885;42.626;23.200;2022-12-18T01:31:08;4.53;;;4.13;;
1775;SDS011;885;42.626;23.200;2022-12-18T01:33:37;5.57;;;4.90;;
1775;SDS011;885;42.626;23.200;2022-12-18T01:36:04;6.93;;;6.20;;
1775;SDS011;885;42.626;23.200;2022-12-18T01:38:31;7.83;;;6.10;;
1775;SDS011;885;42.626;23.200;2022-12-18T01:40:58;5.20;;;4.70;;
1775;SDS011;885;42.626;23.200;2022-12-18T01:43:40;6.37;;;5.77;;
1775;SDS011;885;42.626;23.200;2022-12-18T01:46:12;5.80;;;5.30;;
1775;SDS011;885;42.626;23.200;2022-12-18T01:48:41;6.83;;;6.23;;
1775;SDS011;885;42.626;23.200;2022-12-18T01:51:12;8.17;;;5.63;;
1775;SDS011;885;42.626;23.200;2022-12-18T01:53:39;6.83;;;6.13;;
1775;SDS011;885;42.626;23.200;2022-12-18T01:56:08;7.40;;;5.40;;
1775;SDS011;885;42.626;23.200;2022-12-18T01:58:39;7.30;;;6.47;;
1775;SDS011;885;42.626;23.200;2022-12-18T02:01:12;7.07;;;5.93;;
1775;SDS011;885;42.626;23.200;2022-12-18T02:03:42;6.67;;;5.60;;
1775;SDS011;885;42.626;23.200;2022-12-18T02:06:12;5.30;;;4.37;;
1775;SDS011;885;42.626;23.200;2022-12-18T02:08:47;6.80;;;6.20;;
1775;SDS011;885;42.626;23.200;2022-12-18T02:11:23;5.83;;;5.33;;
1775;SDS011;885;42.626;23.200;2022-12-18T02:14:00;6.13;;;5.53;;
1775;SDS011;885;42.626;23.200;2022-12-18T02:16:37;6.27;;;5.47;;
1775;SDS011;885;42.626;23.200;2022-12-18T02:19:19;5.90;;;4.90;;
1775;SDS011;885;42.626;23.200;2022-12-18T02:22:00;8.33;;;6.77;;
1775;SDS011;885;42.626;23.200;2022-12-18T02:24:45;9.00;;;6.70;;
1775;SDS011;885;42.626;23.200;2022-12-18T02:27:25;6.83;;;6.23;;
1775;SDS011;885;42.626;23.200;2022-12-18T02:29:54;7.63;;;6.90;;
1775;SDS011;885;42.626;23.200;2022-12-18T02:32:24;10.23;;;6.60;;
1775;SDS011;885;42.626;23.200;2022-12-18T02:34:53;7.57;;;6.80;;
1775;SDS011;885;42.626;23.200;2022-12-18T02:37:23;6.23;;;5.60;;
1775;SDS011;885;42.626;23.200;2022-12-18T02:39:53;6.43;;;5.83;;
1775;SDS011;885;42.626;23.200;2022-12-18T02:42:23;8.07;;;6.67;;
1775;SDS011;885;42.626;23.200;2022-12-18T02:44:52;10.40;;;7.07;;
1775;SDS011;885;42.626;23.200;2022-12-18T02:47:19;9.03;;;6.83;;
1775;SDS011;885;42.626;23.200;2022-12-18T02:49:51;8.17;;;7.37;;
1775;SDS011;885;42.626;23.200;2022-12-18T02:52:25;12.67;;;9.13;;
1775;SDS011;885;42.626;23.200;2022-12-18T02:55:00;18.13;;;11.03;;
1775;SDS011;885;42.626;23.200;2022-12-18T02:57:42;15.43;;;10.50;;
1775;SDS011;885;42.626;23.200;2022-12-18T03:00:19;9.33;;;7.50;;
1775;SDS011;885;42.626;23.200;2022-12-18T03:02:51;8.80;;;7.90;;
1775;SDS011;885;42.626;23.200;2022-12-18T03:05:27;12.23;;;8.17;;
1775;SDS011;885;42.626;23.200;2022-12-18T03:07:59;7.40;;;6.33;;
1775;SDS011;885;42.626;23.200;2022-12-18T03:10:31;8.03;;;6.30;;
1775;SDS011;885;42.626;23.200;2022-12-18T03:13:02;5.70;;;5.20;;
1775;SDS011;885;42.626;23.200;2022-12-18T03:15:35;6.37;;;4.83;;
1775;SDS011;885;42.626;23.200;2022-12-18T03:18:06;4.70;;;4.30;;
1775;SDS011;885;42.626;23.200;2022-12-18T03:20:37;5.37;;;3.37;;
1775;SDS011;885;42.626;23.200;2022-12-18T03:23:09;3.90;;;3.53;;
1775;SDS011;885;42.626;23.200;2022-12-18T03:25:39;4.80;;;4.07;;
1775;SDS011;885;42.626;23.200;2022-12-18T03:28:08;4.33;;;3.30;;
1775;SDS011;885;42.626;23.200;2022-12-18T03:30:43;5.23;;;4.00;;
1775;SDS011;885;42.626;23.200;2022-12-18T03:33:12;5.00;;;3.57;;
1775;SDS011;885;42.626;23.200;2022-12-18T03:35:45;5.77;;;3.90;;
1775;SDS011;885;42.626;23.200;2022-12-18T03:38:12;4.80;;;3.23;;
1775;SDS011;885;42.626;23.200;2022-12-18T03:40:43;3.20;;;2.90;;
1775;SDS011;885;42.626;23.200;2022-12-18T03:43:19;4.30;;;3.90;;
1775;SDS011;885;42.626;23.200;2022-12-18T03:45:53;3.43;;;3.13;;
1775;SDS011;885;42.626;23.200;2022-12-18T03:48:29;3.93;;;2.97;;
1775;SDS011;885;42.626;23.200;2022-12-18T03:51:05;3.83;;;3.53;;
1775;SDS011;885;42.626;23.200;2022-12-18T03:53:35;3.90;;;3.50;;
1775;SDS011;885;42.626;23.200;2022-12-18T03:56:05;3.30;;;3.00;;
1775;SDS011;885;42.626;23.200;2022-12-18T03:58:34;4.00;;;3.23;;
1775;SDS011;885;42.626;23.200;2022-12-18T04:01:05;3.60;;;3.30;;
1775;SDS011;885;42.626;23.200;2022-12-18T04:03:35;4.03;;;3.40;;
1775;SDS011;885;42.626;23.200;2022-12-18T04:06:04;6.33;;;3.60;;
1775;SDS011;885;42.626;23.200;2022-12-18T04:08:32;4.10;;;3.50;;
1775;SDS011;885;42.626;23.200;2022-12-18T04:11:00;3.53;;;3.23;;
1775;SDS011;885;42.626;23.200;2022-12-18T04:13:29;3.73;;;3.23;;
1775;SDS011;885;42.626;23.200;2022-12-18T04:15:58;3.90;;;3.50;;
1775;SDS011;885;42.626;23.200;2022-12-18T04:18:26;4.07;;;3.67;;
1775;SDS011;885;42.626;23.200;2022-12-18T04:20:53;3.80;;;3.40;;
1775;SDS011;885;42.626;23.200;2022-12-18T04:23:20;4.53;;;3.10;;
1775;SDS011;885;42.626;23.200;2022-12-18T04:25:47;4.43;;;4.00;;
1775;SDS011;885;42.626;23.200;2022-12-18T04:28:16;3.83;;;3.47;;
1775;SDS011;885;42.626;23.200;2022-12-18T04:30:48;3.00;;;2.70;;
1775;SDS011;885;42.626;23.200;2022-12-18T04:33:17;5.50;;;4.27;;
1775;SDS011;885;42.626;23.200;2022-12-18T04:35:46;4.87;;;3.53;;
1775;SDS011;885;42.626;23.200;2022-12-18T04:38:13;4.00;;;3.37;;
1775;SDS011;885;42.626;23.200;2022-12-18T04:40:41;3.73;;;3.40;;
1775;SDS011;885;42.626;23.200;2022-12-18T04:43:08;4.83;;;2.90;;
1775;SDS011;885;42.626;23.200;2022-12-18T04:45:35;5.00;;;4.10;;
1775;SDS011;885;42.626;23.200;2022-12-18T04:48:02;4.20;;;3.10;;
1775;SDS011;885;42.626;23.200;2022-12-18T04:50:30;4.70;;;4.20;;
1775;SDS011;885;42.626;23.200;2022-12-18T04:52:58;6.20;;;4.23;;
1775;SDS011;885;42.626;23.200;2022-12-18T04:55:25;4.23;;;3.83;;
1775;SDS011;885;42.626;23.200;2022-12-18T04:57:52;5.93;;;4.87;;
1775;SDS011;885;42.626;23.200;2022-12-18T05:00:19;4.97;;;3.93;;
1775;SDS011;885;42.626;23.200;2022-12-18T05:02:46;4.33;;;3.83;;
1775;SDS011;885;42.626;23.200;2022-12-18T05:05:13;5.07;;;3.90;;
1775;SDS011;885;42.626;23.200;2022-12-18T05:07:44;5.73;;;4.93;;
1775;SDS011;885;42.626;23.200;2022-12-18T05:10:12;5.40;;;4.50;;
1775;SDS011;885;42.626;23.200;2022-12-18T05:12:41;4.60;;;4.20;;
1775;SDS011;885;42.626;23.200;2022-12-18T05:15:21;5.63;;;4.50;;
1775;SDS011;885;42.626;23.200;2022-12-18T05:17:48;7.83;;;5.67;;
1775;SDS011;885;42.626;23.200;2022-12-18T05:20:18;6.03;;;4.87;;
1775;SDS011;885;42.626;23.200;2022-12-18T05:22:45;5.67;;;4.83;;
1775;SDS011;885;42.626;23.200;2022-12-18T05:25:13;6.70;;;4.90;;
1775;SDS011;885;42.626;23.200;2022-12-18T05:27:44;5.50;;;4.53;;
1775;SDS011;885;42.626;23.200;2022-12-18T05:30:11;5.67;;;5.10;;
1775;SDS011;885;42.626;23.200;2022-12-18T05:32:38;8.90;;;5.87;;
1775;SDS011;885;42.626;23.200;2022-12-18T05:35:06;5.47;;;4.93;;
1775;SDS011;885;42.626;23.200;2022-12-18T05:37:34;6.30;;;5.07;;
1775;SDS011;885;42.626;23.200;2022-12-18T05:40:02;6.00;;;4.43;;
1775;SDS011;885;42.626;23.200;2022-12-18T05:42:31;5.20;;;4.70;;
1775;SDS011;885;42.626;23.200;2022-12-18T05:44:58;5.47;;;4.87;;
1775;SDS011;885;42.626;23.200;2022-12-18T05:47:26;5.03;;;4.53;;
1775;SDS011;885;42.626;23.200;2022-12-18T05:49:53;6.10;;;5.50;;
1775;SDS011;885;42.626;23.200;2022-12-18T05:52:19;5.90;;;5.27;;
1775;SDS011;885;42.626;23.200;2022-12-18T05:54:46;5.30;;;4.77;;
1775;SDS011;885;42.626;23.200;2022-12-18T05:57:13;5.70;;;4.70;;
1775;SDS011;885;42.626;23.200;2022-12-18T05:59:44;5.20;;;4.20;;
1775;SDS011;885;42.626;23.200;2022-12-18T06:02:11;5.27;;;4.77;;
1775;SDS011;885;42.626;23.200;2022-12-18T06:04:38;6.80;;;6.10;;
1775;SDS011;885;42.626;23.200;2022-12-18T06:07:05;6.07;;;4.70;;
1775;SDS011;885;42.626;23.200;2022-12-18T06:09:31;6.03;;;5.10;;
1775;SDS011;885;42.626;23.200;2022-12-18T06:11:58;7.10;;;4.97;;
1775;SDS011;885;42.626;23.200;2022-12-18T06:14:25;5.40;;;4.90;;
1775;SDS011;885;42.626;23.200;2022-12-18T06:16:54;6.93;;;4.90;;
1775;SDS011;885;42.626;23.200;2022-12-18T06:19:21;7.80;;;6.07;;
1775;SDS011;885;42.626;23.200;2022-12-18T06:21:47;6.90;;;5.27;;
1775;SDS011;885;42.626;23.200;2022-12-18T06:24:17;9.63;;;5.50;;
1775;SDS011;885;42.626;23.200;2022-12-18T06:26:45;6.10;;;4.90;;
1775;SDS011;885;42.626;23.200;2022-12-18T06:29:12;8.87;;;6.37;;
1775;SDS011;885;42.626;23.200;2022-12-18T06:31:39;6.03;;;5.43;;
1775;SDS011;885;42.626;23.200;2022-12-18T06:34:07;7.10;;;6.23;;
1775;SDS011;885;42.626;23.200;2022-12-18T06:36:34;7.03;;;5.57;;
1775;SDS011;885;42.626;23.200;2022-12-18T06:39:00;8.50;;;6.37;;
1775;SDS011;885;42.626;23.200;2022-12-18T06:41:27;6.47;;;5.43;;
1775;SDS011;885;42.626;23.200;2022-12-18T06:43:54;6.53;;;5.83;;
1775;SDS011;885;42.626;23.200;2022-12-18T06:46:21;7.13;;;5.10;;
1775;SDS011;885;42.626;23.200;2022-12-18T06:48:48;6.53;;;5.90;;
1775;SDS011;885;42.626;23.200;2022-12-18T06:51:19;8.83;;;5.40;;
1775;SDS011;885;42.626;23.200;2022-12-18T06:53:47;7.40;;;5.07;;
1775;SDS011;885;42.626;23.200;2022-12-18T06:56:15;5.73;;;5.23;;
1775;SDS011;885;42.626;23.200;2022-12-18T06:58:44;6.27;;;5.17;;
1775;SDS011;885;42.626;23.200;2022-12-18T07:01:11;8.33;;;4.93;;
1775;SDS011;885;42.626;23.200;2022-12-18T07:03:38;7.13;;;5.27;;
1775;SDS011;885;42.626;23.200;2022-12-18T07:06:11;6.50;;;5.20;;
1775;SDS011;885;42.626;23.200;2022-12-18T07:08:43;5.03;;;4.53;;
1775;SDS011;885;42.626;23.200;2022-12-18T07:11:10;7.87;;;5.40;;
1775;SDS011;885;42.626;23.200;2022-12-18T07:13:38;7.40;;;5.67;;
1775;SDS011;885;42.626;23.200;2022-12-18T07:16:06;6.60;;;5.33;;
1775;SDS011;885;42.626;23.200;2022-12-18T07:18:34;5.73;;;5.13;;
1775;SDS011;885;42.626;23.200;2022-12-18T07:21:03;7.40;;;5.53;;
1775;SDS011;885;42.626;23.200;2022-12-18T07:23:31;6.17;;;4.90;;
1775;SDS011;885;42.626;23.200;2022-12-18T07:26:02;5.07;;;4.57;;
1775;SDS011;885;42.626;23.200;2022-12-18T07:28:31;5.93;;;5.23;;
1775;SDS011;885;42.626;23.200;2022-12-18T07:30:58;5.67;;;4.73;;
1775;SDS011;885;42.626;23.200;2022-12-18T07:33:28;5.53;;;4.60;;
1775;SDS011;885;42.626;23.200;2022-12-18T07:35:55;8.13;;;5.90;;
1775;SDS011;885;42.626;23.200;2022-12-18T07:38:21;5.87;;;5.30;;
1775;SDS011;885;42.626;23.200;2022-12-18T07:40:48;7.37;;;5.50;;
1775;SDS011;885;42.626;23.200;2022-12-18T07:43:18;9.10;;;6.67;;
1775;SDS011;885;42.626;23.200;2022-12-18T07:45:45;8.03;;;6.17;;
1775;SDS011;885;42.626;23.200;2022-12-18T07:48:17;7.00;;;5.50;;
1775;SDS011;885;42.626;23.200;2022-12-18T07:50:44;6.50;;;5.10;;
1775;SDS011;885;42.626;23.200;2022-12-18T07:53:11;6.10;;;5.50;;
1775;SDS011;885;42.626;23.200;2022-12-18T07:55:39;7.17;;;5.37;;
1775;SDS011;885;42.626;23.200;2022-12-18T07:58:06;8.33;;;5.43;;
1775;SDS011;885;42.626;23.200;2022-12-18T08:00:35;5.80;;;5.20;;
1775;SDS011;885;42.626;23.200;2022-12-18T08:03:02;8.33;;;6.93;;
1775;SDS011;885;42.626;23.200;2022-12-18T08:05:29;5.60;;;4.90;;
1775;SDS011;885;42.626;23.200;2022-12-18T08:07:56;7.03;;;5.70;;
1775;SDS011;885;42.626;23.200;2022-12-18T08:10:24;7.70;;;5.37;;
1775;SDS011;885;42.626;23.200;2022-12-18T08:12:51;9.20;;;5.67;;
1775;SDS011;885;42.626;23.200;2022-12-18T08:15:18;8.33;;;6.47;;
1775;SDS011;885;42.626;23.200;2022-12-18T08:17:46;8.33;;;5.90;;
1775;SDS011;885;42.626;23.200;2022-12-18T08:20:13;6.60;;;5.90;;
1775;SDS011;885;42.626;23.200;2022-12-18T08:22:42;12.83;;;7.50;;
1775;SDS011;885;42.626;23.200;2022-12-18T08:25:09;59.40;;;28.73;;
1775;SDS011;885;42.626;23.200;2022-12-18T08:27:36;10.70;;;6.67;;
1775;SDS011;885;42.626;23.200;2022-12-18T08:30:03;7.50;;;6.17;;
1775;SDS011;885;42.626;23.200;2022-12-18T08:32:31;9.90;;;8.07;;
1775;SDS011;885;42.626;23.200;2022-12-18T08:35:03;7.97;;;6.13;;
1775;SDS011;885;42.626;23.200;2022-12-18T08:37:31;7.17;;;6.47;;
1775;SDS011;885;42.626;23.200;2022-12-18T08:39:57;8.77;;;6.67;;
1775;SDS011;885;42.626;23.200;2022-12-18T08:42:24;11.90;;;7.77;;
1775;SDS011;885;42.626;23.200;2022-12-18T08:45:08;8.80;;;6.50;;
1775;SDS011;885;42.626;23.200;2022-12-18T08:47:35;8.73;;;6.53;;
1775;SDS011;885;42.626;23.200;2022-12-18T08:50:04;9.87;;;5.77;;
1775;SDS011;885;42.626;23.200;2022-12-18T08:52:31;8.67;;;6.20;;
1775;SDS011;885;42.626;23.200;2022-12-18T08:54:58;8.50;;;6.47;;
1775;SDS011;885;42.626;23.200;2022-12-18T08:57:25;6.23;;;5.53;;
1775;SDS011;885;42.626;23.200;2022-12-18T08:59:52;10.13;;;6.20;;
1775;SDS011;885;42.626;23.200;2022-12-18T09:02:19;8.43;;;6.40;;
1775;SDS011;885;42.626;23.200;2022-12-18T09:04:46;10.13;;;8.00;;
1775;SDS011;885;42.626;23.200;2022-12-18T09:07:15;12.43;;;7.50;;
1775;SDS011;885;42.626;23.200;2022-12-18T09:09:44;7.00;;;5.93;;
1775;SDS011;885;42.626;23.200;2022-12-18T09:12:11;6.63;;;5.93;;
1775;SDS011;885;42.626;23.200;2022-12-18T09:14:38;7.97;;;6.40;;
1775;SDS011;885;42.626;23.200;2022-12-18T09:17:05;11.20;;;7.20;;
1775;SDS011;885;42.626;23.200;2022-12-18T09:19:31;9.70;;;6.73;;
1775;SDS011;885;42.626;23.200;2022-12-18T09:21:58;9.67;;;6.97;;
1775;SDS011;885;42.626;23.200;2022-12-18T09:24:26;10.70;;;8.73;;
1775;SDS011;885;42.626;23.200;2022-12-18T09:26:53;9.67;;;8.00;;
1775;SDS011;885;42.626;23.200;2022-12-18T09:29:20;13.47;;;8.13;;
1775;SDS011;885;42.626;23.200;2022-12-18T09:31:47;15.33;;;9.33;;
1775;SDS011;885;42.626;23.200;2022-12-18T09:34:15;12.50;;;10.70;;
1775;SDS011;885;42.626;23.200;2022-12-18T09:36:46;17.73;;;14.80;;
1775;SDS011;885;42.626;23.200;2022-12-18T09:39:12;17.00;;;12.50;;
1775;SDS011;885;42.626;23.200;2022-12-18T09:41:42;12.37;;;11.07;;
1775;SDS011;885;42.626;23.200;2022-12-18T09:44:13;13.63;;;12.17;;
1775;SDS011;885;42.626;23.200;2022-12-18T09:46:47;12.97;;;10.60;;
1775;SDS011;885;42.626;23.200;2022-12-18T09:49:19;16.53;;;13.27;;
1775;SDS011;885;42.626;23.200;2022-12-18T09:51:52;13.50;;;11.23;;
1775;SDS011;885;42.626;23.200;2022-12-18T09:54:24;16.00;;;12.63;;
1775;SDS011;885;42.626;23.200;2022-12-18T09:56:57;21.70;;;15.30;;
1775;SDS011;885;42.626;23.200;2022-12-18T09:59:25;54.20;;;36.47;;
1775;SDS011;885;42.626;23.200;2022-12-18T10:01:57;13.30;;;11.37;;
1775;SDS011;885;42.626;23.200;2022-12-18T10:04:23;13.50;;;12.17;;
1775;SDS011;885;42.626;23.200;2022-12-18T10:06:52;13.97;;;11.27;;
1775;SDS011;885;42.626;23.200;2022-12-18T10:09:28;13.57;;;10.17;;
1775;SDS011;885;42.626;23.200;2022-12-18T10:12:02;15.30;;;12.33;;
1775;SDS011;885;42.626;23.200;2022-12-18T10:14:36;14.13;;;11.60;;
1775;SDS011;885;42.626;23.200;2022-12-18T10:17:12;17.77;;;13.73;;
1775;SDS011;885;42.626;23.200;2022-12-18T10:19:49;15.10;;;12.17;;
1775;SDS011;885;42.626;23.200;2022-12-18T10:22:21;15.47;;;11.70;;
1775;SDS011;885;42.626;23.200;2022-12-18T10:24:58;14.30;;;11.40;;
1775;SDS011;885;42.626;23.200;2022-12-18T10:27:34;16.00;;;11.90;;
1775;SDS011;885;42.626;23.200;2022-12-18T10:30:04;17.70;;;13.10;;
1775;SDS011;885;42.626;23.200;2022-12-18T10:32:39;16.50;;;13.43;;
1775;SDS011;885;42.626;23.200;2022-12-18T10:35:08;13.63;;;11.97;;
1775;SDS011;885;42.626;23.200;2022-12-18T10:38:00;13.30;;;9.90;;
1775;SDS011;885;42.626;23.200;2022-12-18T10:40:28;15.10;;;10.80;;
1775;SDS011;885;42.626;23.200;2022-12-18T10:43:10;16.97;;;11.07;;
1775;SDS011;885;42.626;23.200;2022-12-18T10:45:38;16.87;;;11.37;;
1775;SDS011;885;42.626;23.200;2022-12-18T10:48:16;15.30;;;10.63;;
1775;SDS011;885;42.626;23.200;2022-12-18T10:50:46;17.10;;;11.17;;
1775;SDS011;885;42.626;23.200;2022-12-18T10:53:18;16.90;;;12.50;;
1775;SDS011;885;42.626;23.200;2022-12-18T10:55:46;14.50;;;11.60;;
1775;SDS011;885;42.626;23.200;2022-12-18T10:58:23;16.20;;;11.80;;
1775;SDS011;885;42.626;23.200;2022-12-18T11:01:01;19.10;;;12.87;;
1775;SDS011;885;42.626;23.200;2022-12-18T11:03:33;15.27;;;12.13;;
1775;SDS011;885;42.626;23.200;2022-12-18T11:06:02;17.33;;;12.40;;
1775;SDS011;885;42.626;23.200;2022-12-18T11:08:31;13.80;;;10.67;;
1775;SDS011;885;42.626;23.200;2022-12-18T11:10:58;14.50;;;10.90;;
1775;SDS011;885;42.626;23.200;2022-12-18T11:13:27;12.03;;;9.30;;
1775;SDS011;885;42.626;23.200;2022-12-18T11:15:55;14.57;;;10.23;;
1775;SDS011;885;42.626;23.200;2022-12-18T11:18:24;15.43;;;9.33;;
1775;SDS011;885;42.626;23.200;2022-12-18T11:20:54;14.37;;;9.97;;
1775;SDS011;885;42.626;23.200;2022-12-18T11:23:23;13.33;;;10.20;;
1775;SDS011;885;42.626;23.200;2022-12-18T11:25:50;12.10;;;8.73;;
1775;SDS011;885;42.626;23.200;2022-12-18T11:28:27;10.23;;;8.97;;
1775;SDS011;885;42.626;23.200;2022-12-18T11:33:57;10.40;;;7.77;;
1775;SDS011;885;42.626;23.200;2022-12-18T11:36:28;19.20;;;9.27;;
1775;SDS011;885;42.626;23.200;2022-12-18T11:38:59;13.40;;;8.97;;
1775;SDS011;885;42.626;23.200;2022-12-18T11:41:29;11.70;;;9.20;;
1775;SDS011;885;42.626;23.200;2022-12-18T11:44:21;10.43;;;7.87;;
1775;SDS011;885;42.626;23.200;2022-12-18T11:46:55;10.10;;;8.20;;
1775;SDS011;885;42.626;23.200;2022-12-18T11:49:30;10.50;;;9.23;;
1775;SDS011;885;42.626;23.200;2022-12-18T11:52:00;11.50;;;8.00;;
1775;SDS011;885;42.626;23.200;2022-12-18T11:54:31;12.97;;;8.80;;
1775;SDS011;885;42.626;23.200;2022-12-18T11:56:58;11.67;;;8.87;;
1775;SDS011;885;42.626;23.200;2022-12-18T11:59:38;13.80;;;9.90;;
1775;SDS011;885;42.626;23.200;2022-12-18T12:02:24;13.70;;;10.00;;
1775;SDS011;885;42.626;23.200;2022-12-18T12:05:18;11.73;;;9.43;;
1775;SDS011;885;42.626;23.200;2022-12-18T12:07:53;15.93;;;10.00;;
1775;SDS011;885;42.626;23.200;2022-12-18T12:10:29;13.50;;;9.90;;
1775;SDS011;885;42.626;23.200;2022-12-18T12:13:11;13.63;;;8.97;;
1775;SDS011;885;42.626;23.200;2022-12-18T12:15:51;12.40;;;8.90;;
1775;SDS011;885;42.626;23.200;2022-12-18T12:18:32;12.97;;;9.60;;
1775;SDS011;885;42.626;23.200;2022-12-18T12:21:11;10.70;;;8.20;;
1775;SDS011;885;42.626;23.200;2022-12-18T12:23:47;12.33;;;8.17;;
1775;SDS011;885;42.626;23.200;2022-12-18T12:26:27;15.00;;;9.80;;
1775;SDS011;885;42.626;23.200;2022-12-18T12:29:01;15.77;;;9.63;;
1775;SDS011;885;42.626;23.200;2022-12-18T12:31:54;12.70;;;9.20;;
1775;SDS011;885;42.626;23.200;2022-12-18T12:34:33;10.93;;;8.53;;
1775;SDS011;885;42.626;23.200;2022-12-18T12:37:11;12.17;;;9.00;;
1775;SDS011;885;42.626;23.200;2022-12-18T12:39:47;11.10;;;8.37;;
1775;SDS011;885;42.626;23.200;2022-12-18T12:42:16;13.10;;;10.10;;
1775;SDS011;885;42.626;23.200;2022-12-18T12:45:04;13.50;;;10.20;;
1775;SDS011;885;42.626;23.200;2022-12-18T12:47:35;15.40;;;10.93;;
1775;SDS011;885;42.626;23.200;2022-12-18T12:50:11;15.50;;;9.63;;
1775;SDS011;885;42.626;23.200;2022-12-18T12:52:42;11.97;;;10.37;;
1775;SDS011;885;42.626;23.200;2022-12-18T12:55:14;10.73;;;8.97;;
1775;SDS011;885;42.626;23.200;2022-12-18T12:57:48;13.20;;;9.57;;
1775;SDS011;885;42.626;23.200;2022-12-18T13:00:23;12.23;;;8.73;;
1775;SDS011;885;42.626;23.200;2022-12-18T13:02:59;15.47;;;11.30;;
1775;SDS011;885;42.626;23.200;2022-12-18T13:05:34;11.80;;;9.70;;
1775;SDS011;885;42.626;23.200;2022-12-18T13:08:10;12.67;;;9.20;;
1775;SDS011;885;42.626;23.200;2022-12-18T13:10:38;16.50;;;11.50;;
1775;SDS011;885;42.626;23.200;2022-12-18T13:13:07;13.77;;;10.90;;
1775;SDS011;885;42.626;23.200;2022-12-18T13:15:37;13.83;;;10.50;;
1775;SDS011;885;42.626;23.200;2022-12-18T13:18:10;13.83;;;9.27;;
1775;SDS011;885;42.626;23.200;2022-12-18T13:20:41;19.43;;;12.60;;
1775;SDS011;885;42.626;23.200;2022-12-18T13:23:23;19.43;;;12.93;;
1775;SDS011;885;42.626;23.200;2022-12-18T13:25:53;19.00;;;12.00;;
1775;SDS011;885;42.626;23.200;2022-12-18T13:28:21;14.63;;;11.47;;
1775;SDS011;885;42.626;23.200;2022-12-18T13:30:52;15.00;;;11.80;;
1775;SDS011;885;42.626;23.200;2022-12-18T13:36:35;14.67;;;10.43;;
1775;SDS011;885;42.626;23.200;2022-12-18T13:39:09;13.03;;;9.80;;
1775;SDS011;885;42.626;23.200;2022-12-18T13:48:14;15.00;;;10.33;;
1775;SDS011;885;42.626;23.200;2022-12-18T13:50:49;14.23;;;9.97;;
1775;SDS011;885;42.626;23.200;2022-12-18T13:53:20;13.97;;;9.73;;
1775;SDS011;885;42.626;23.200;2022-12-18T13:55:49;15.40;;;10.40;;
1775;SDS011;885;42.626;23.200;2022-12-18T13:58:17;12.40;;;9.30;;
1775;SDS011;885;42.626;23.200;2022-12-18T14:00:44;15.47;;;10.67;;
1775;SDS011;885;42.626;23.200;2022-12-18T14:03:16;12.90;;;8.50;;
1775;SDS011;885;42.626;23.200;2022-12-18T14:05:45;12.53;;;8.87;;
1775;SDS011;885;42.626;23.200;2022-12-18T14:08:19;14.03;;;10.97;;
1775;SDS011;885;42.626;23.200;2022-12-18T14:10:47;17.50;;;12.20;;
1775;SDS011;885;42.626;23.200;2022-12-18T14:13:18;15.27;;;11.23;;
1775;SDS011;885;42.626;23.200;2022-12-18T14:15:49;31.10;;;22.50;;
1775;SDS011;885;42.626;23.200;2022-12-18T14:18:19;19.70;;;13.90;;
1775;SDS011;885;42.626;23.200;2022-12-18T14:20:49;17.50;;;12.57;;
1775;SDS011;885;42.626;23.200;2022-12-18T14:23:32;18.83;;;14.13;;
1775;SDS011;885;42.626;23.200;2022-12-18T14:26:00;18.07;;;12.40;;
1775;SDS011;885;42.626;23.200;2022-12-18T14:28:45;17.83;;;13.37;;
1775;SDS011;885;42.626;23.200;2022-12-18T14:31:17;23.03;;;13.83;;
1775;SDS011;885;42.626;23.200;2022-12-18T14:33:45;15.03;;;12.40;;
1775;SDS011;885;42.626;23.200;2022-12-18T14:36:14;16.10;;;11.50;;
1775;SDS011;885;42.626;23.200;2022-12-18T14:38:48;16.60;;;11.80;;
1775;SDS011;885;42.626;23.200;2022-12-18T14:41:17;18.10;;;12.10;;
1775;SDS011;885;42.626;23.200;2022-12-18T14:43:45;17.47;;;13.13;;
1775;SDS011;885;42.626;23.200;2022-12-18T14:46:25;15.43;;;11.53;;
1775;SDS011;885;42.626;23.200;2022-12-18T14:48:55;18.00;;;12.60;;
1775;SDS011;885;42.626;23.200;2022-12-18T14:51:23;17.43;;;11.57;;
1775;SDS011;885;42.626;23.200;2022-12-18T14:53:54;17.80;;;12.27;;
1775;SDS011;885;42.626;23.200;2022-12-18T14:56:23;14.80;;;11.40;;
1775;SDS011;885;42.626;23.200;2022-12-18T14:58:52;15.77;;;12.03;;
1775;SDS011;885;42.626;23.200;2022-12-18T15:01:22;14.40;;;10.77;;
1775;SDS011;885;42.626;23.200;2022-12-18T15:03:51;18.90;;;13.30;;
1775;SDS011;885;42.626;23.200;2022-12-18T15:06:24;15.90;;;11.30;;
1775;SDS011;885;42.626;23.200;2022-12-18T15:08:54;15.33;;;11.00;;
1775;SDS011;885;42.626;23.200;2022-12-18T15:11:28;25.97;;;15.90;;
1775;SDS011;885;42.626;23.200;2022-12-18T15:16:50;13.60;;;9.73;;
1775;SDS011;885;42.626;23.200;2022-12-18T15:19:18;12.63;;;9.80;;
1775;SDS011;885;42.626;23.200;2022-12-18T15:21:47;15.47;;;8.90;;
1775;SDS011;885;42.626;23.200;2022-12-18T15:24:18;11.40;;;8.83;;
1775;SDS011;885;42.626;23.200;2022-12-18T15:26:48;11.37;;;8.10;;
1775;SDS011;885;42.626;23.200;2022-12-18T15:29:16;15.10;;;10.00;;
1775;SDS011;885;42.626;23.200;2022-12-18T15:32:00;14.47;;;10.27;;
1775;SDS011;885;42.626;23.200;2022-12-18T15:34:28;12.10;;;9.33;;
1775;SDS011;885;42.626;23.200;2022-12-18T15:36:56;11.50;;;8.80;;
1775;SDS011;885;42.626;23.200;2022-12-18T15:39:24;13.67;;;9.93;;
1775;SDS011;885;42.626;23.200;2022-12-18T15:41:51;13.20;;;10.40;;